Terminal Aerodrome Forecast
Issued by NWS

Home | Current Version | Previous Version | Text Only | Print | Product List | Glossary Off
Versions: 1 2 3 4 5 6 7 8 9 10 11 12 13 14 15 16 17

701
FTUS43 KMPX 230520
TAFRNH
TAF
KRNH 230520Z 2306/2406 05006KT P6SM SCT012 BKN070
     FM230800 07006KT P6SM BKN012 OVC030
     FM231600 09008KT P6SM SCT020 BKN035
     FM232000 11008KT P6SM VCSH SCT030 OVC050=

USA.gov is the U.S. government's official web portal to all federal, state and local government web resources and services.